Time;durP1;ratioP1;P1;durP2;ratioP2;P2;SDS_P1;SDS_P2;PMS_P1;PMS_P2;Temp;Humidity;BMP_temperature;BMP_pressure;BME280_temperature;BME280_humidity;BME280_pressure;Samples;Min_cycle;Max_cycle;Signal;HPM_P1;HPM_P2
2022/05/13 00:01:44;;;;;;;0.65;0.50;;;;;;;10.19;100.00;101008.91;5060170;28;20416;-79
2022/05/13 00:04:18;;;;;;;0.50;0.50;;;;;;;10.18;100.00;101001.81;5047004;28;20429;-80
2022/05/13 00:06:51;;;;;;;0.55;0.55;;;;;;;10.19;100.00;101008.91;5064761;28;20423;-80
2022/05/13 00:09:56;;;;;;;0.90;0.60;;;;;;;10.21;100.00;101003.19;5047463;28;20425;-79
2022/05/13 00:12:18;;;;;;;0.50;0.50;;;;;;;10.16;100.00;101006.72;5046464;28;20872;-80
2022/05/13 00:14:46;;;;;;;0.50;0.50;;;;;;;10.15;100.00;100998.81;5089206;28;20438;-79
2022/05/13 00:17:23;;;;;;;0.70;0.50;;;;;;;10.14;100.00;100997.19;5055203;28;20431;-80
2022/05/13 00:19:51;;;;;;;0.70;0.50;;;;;;;9.98;100.00;101002.56;5046769;28;20764;-80
2022/05/13 00:22:25;;;;;;;0.50;0.50;;;;;;;9.97;100.00;100987.38;5048429;28;20443;-79
2022/05/13 00:24:58;;;;;;;0.50;0.50;;;;;;;9.94;100.00;100987.06;5065048;28;20408;-79
2022/05/13 00:27:31;;;;;;;0.60;0.60;;;;;;;9.90;100.00;101002.28;5062707;28;20423;-79
2022/05/13 00:30:06;;;;;;;0.73;0.60;;;;;;;9.82;100.00;100993.56;5043954;28;20766;-80
2022/05/13 00:32:36;;;;;;;0.50;0.50;;;;;;;9.70;100.00;100993.78;5045621;28;20435;-80
2022/05/13 00:35:10;;;;;;;0.60;0.50;;;;;;;9.61;100.00;100986.41;5050157;28;20438;-80
2022/05/13 00:37:43;;;;;;;0.90;0.67;;;;;;;9.61;100.00;100989.97;5065549;28;20794;-80
2022/05/13 00:40:20;;;;;;;0.80;0.60;;;;;;;9.50;100.00;100980.94;5049600;28;20423;-80
2022/05/13 00:42:49;;;;;;;0.40;0.40;;;;;;;9.53;100.00;100990.47;5048723;28;20920;-80
2022/05/13 00:45:18;;;;;;;0.50;0.50;;;;;;;9.60;100.00;100987.50;5070062;28;20421;-80
2022/05/13 00:47:53;;;;;;;0.50;0.50;;;;;;;9.58;100.00;100990.47;5042639;28;20426;-80
2022/05/13 00:50:28;;;;;;;0.60;0.60;;;;;;;9.53;100.00;100982.31;5068408;28;20430;-80
2022/05/13 00:53:02;;;;;;;0.75;0.50;;;;;;;9.42;100.00;100986.06;5043783;28;20414;-80
2022/05/13 00:55:35;;;;;;;0.85;0.57;;;;;;;9.39;100.00;100973.00;5050976;28;20422;-79
2022/05/13 00:58:07;;;;;;;0.60;0.60;;;;;;;9.39;100.00;100976.56;5081010;28;20448;-80
2022/05/13 01:00:40;;;;;;;0.60;0.60;;;;;;;9.50;100.00;100977.41;5059034;28;20408;-80
2022/05/13 01:03:15;;;;;;;0.50;0.50;;;;;;;9.45;100.00;100982.84;5046514;28;20420;-79
2022/05/13 01:05:48;;;;;;;0.45;0.45;;;;;;;9.47;100.00;100975.22;5048310;28;20783;-79
2022/05/13 01:08:17;;;;;;;1.48;0.70;;;;;;;9.35;100.00;100961.88;5040625;28;20424;-80
2022/05/13 01:10:47;;;;;;;0.50;0.50;;;;;;;9.40;100.00;100983.59;5070243;28;20415;-80
2022/05/13 01:13:22;;;;;;;0.80;0.50;;;;;;;9.39;100.00;100964.84;5071848;28;20425;-79
2022/05/13 01:15:57;;;;;;;0.55;0.50;;;;;;;9.58;100.00;100978.81;5062989;28;20749;-79
2022/05/13 01:18:33;;;;;;;0.75;0.60;;;;;;;9.51;100.00;100977.16;5062291;28;20510;-79
2022/05/13 01:21:09;;;;;;;0.40;0.40;;;;;;;9.42;100.00;100972.47;5048961;28;20432;-80
2022/05/13 01:23:45;;;;;;;0.60;0.60;;;;;;;9.41;100.00;100973.56;5042226;28;20782;-80
2022/05/13 01:26:25;;;;;;;0.60;0.60;;;;;;;9.41;100.00;100960.81;5065245;28;20460;-80
2022/05/13 01:28:59;;;;;;;0.75;0.52;;;;;;;9.34;100.00;100962.94;5059503;28;20754;-80
2022/05/13 01:31:35;;;;;;;0.45;0.45;;;;;;;9.17;100.00;100957.72;5047420;28;20771;-80
2022/05/13 01:34:06;;;;;;;0.60;0.60;;;;;;;9.14;100.00;100974.50;5053050;28;20412;-80
2022/05/13 01:36:35;;;;;;;0.88;0.50;;;;;;;9.05;100.00;100968.75;5068195;28;20772;-79
2022/05/13 01:39:10;;;;;;;0.60;0.50;;;;;;;9.09;100.00;100964.44;5050371;28;20415;-80
2022/05/13 01:41:39;;;;;;;1.17;0.50;;;;;;;8.97;100.00;100961.91;5052878;28;20420;-79
2022/05/13 01:44:12;;;;;;;0.60;0.60;;;;;;;9.02;100.00;100969.28;5053513;28;20420;-79
2022/05/13 01:46:46;;;;;;;0.50;0.50;;;;;;;8.88;100.00;100960.81;5047222;28;20793;-79
2022/05/13 01:49:15;;;;;;;0.52;0.52;;;;;;;8.78;100.00;100961.56;5048888;28;20404;-79
2022/05/13 01:51:43;;;;;;;0.80;0.50;;;;;;;8.73;100.00;100949.81;5046771;28;20437;-79
2022/05/13 01:54:17;;;;;;;0.80;0.60;;;;;;;8.75;100.00;100964.75;5061755;28;20417;-79
2022/05/13 01:56:51;;;;;;;0.50;0.50;;;;;;;8.71;100.00;100962.84;5053286;28;20420;-79
2022/05/13 01:59:24;;;;;;;0.70;0.60;;;;;;;8.67;100.00;100963.38;5068121;28;20415;-79
2022/05/13 02:01:52;;;;;;;0.70;0.60;;;;;;;8.64;100.00;100963.88;5046074;28;21100;-79
2022/05/13 02:04:20;;;;;;;0.60;0.60;;;;;;;8.58;100.00;100962.19;5075906;28;20420;-80
2022/05/13 02:06:54;;;;;;;0.80;0.50;;;;;;;8.50;100.00;100955.34;5048710;28;20417;-79
2022/05/13 02:09:28;;;;;;;0.60;0.60;;;;;;;8.48;100.00;100954.00;5053615;28;20426;-79
2022/05/13 02:12:02;;;;;;;0.40;0.40;;;;;;;8.40;100.00;100959.88;5041236;28;21094;-79
2022/05/13 02:14:35;;;;;;;0.52;0.52;;;;;;;8.46;100.00;100956.94;5054490;28;20438;-79
2022/05/13 02:17:08;;;;;;;0.57;0.50;;;;;;;8.38;100.00;100962.81;5060766;28;20951;-79
2022/05/13 02:19:41;;;;;;;0.53;0.53;;;;;;;8.41;100.00;100961.47;5047906;28;20514;-80
2022/05/13 02:22:09;;;;;;;0.60;0.60;;;;;;;8.45;100.00;100955.31;5046021;28;20895;-79
2022/05/13 02:24:44;;;;;;;0.60;0.60;;;;;;;8.37;100.00;100961.19;5066033;28;20912;-80
2022/05/13 02:27:17;;;;;;;0.60;0.50;;;;;;;8.42;100.00;100944.13;5068948;28;20428;-80
2022/05/13 02:29:50;;;;;;;0.85;0.70;;;;;;;8.57;100.00;100951.63;5050840;28;21037;-79
2022/05/13 02:32:24;;;;;;;1.50;0.60;;;;;;;8.56;100.00;100949.97;5049040;28;20454;-79
2022/05/13 02:34:52;;;;;;;0.57;0.50;;;;;;;8.56;100.00;100944.53;5065119;28;20408;-80
2022/05/13 02:37:20;;;;;;;0.93;0.60;;;;;;;8.55;100.00;100946.44;5067485;28;20404;-80
2022/05/13 02:39:54;;;;;;;0.63;0.60;;;;;;;8.44;100.00;100945.53;5059823;28;20415;-80
2022/05/13 02:42:28;;;;;;;0.65;0.60;;;;;;;8.43;100.00;100941.16;5052761;28;20416;-80
2022/05/13 02:44:56;;;;;;;1.40;0.60;;;;;;;8.43;100.00;100943.88;5069462;28;20400;-80
2022/05/13 02:47:24;;;;;;;0.60;0.60;;;;;;;8.37;100.00;100933.25;5061711;28;20421;-80
2022/05/13 02:52:39;;;;;;;0.50;0.50;;;;;;;8.41;100.00;100943.34;5055127;28;20452;-80
2022/05/13 02:55:14;;;;;;;1.35;0.52;;;;;;;8.39;100.00;100942.75;5041445;28;21085;-80
2022/05/13 02:57:48;;;;;;;0.70;0.60;;;;;;;8.37;100.00;100941.38;5053156;28;20425;-79
2022/05/13 03:00:21;;;;;;;0.60;0.60;;;;;;;8.33;100.00;100943.81;5048053;28;20427;-79
2022/05/13 03:02:54;;;;;;;0.60;0.60;;;;;;;8.15;100.00;100945.00;5050842;28;20990;-80
2022/05/13 03:05:28;;;;;;;0.60;0.60;;;;;;;8.17;100.00;100937.41;5066797;28;20421;-81
2022/05/13 03:08:02;;;;;;;0.70;0.70;;;;;;;8.12;100.00;100932.78;5063942;28;20413;-80
2022/05/13 03:10:39;;;;;;;0.50;0.50;;;;;;;8.07;100.00;100910.22;5048911;28;21264;-79
2022/05/13 03:13:13;;;;;;;0.60;0.60;;;;;;;8.05;100.00;100918.63;5057805;28;20477;-80
2022/05/13 03:15:47;;;;;;;0.90;0.70;;;;;;;8.11;100.00;100919.47;5059246;28;20827;-80
2022/05/13 03:18:21;;;;;;;0.60;0.60;;;;;;;8.10;100.00;100915.13;5041520;28;20437;-80
2022/05/13 03:20:54;;;;;;;0.70;0.70;;;;;;;8.17;100.00;100913.84;5060688;28;20411;-78
2022/05/13 03:23:28;;;;;;;1.10;0.70;;;;;;;8.14;100.00;100908.91;5066105;28;20431;-78
2022/05/13 03:25:58;;;;;;;0.70;0.70;;;;;;;8.05;100.00;100909.66;5067302;28;20450;-79
2022/05/13 03:28:31;;;;;;;0.57;0.57;;;;;;;8.12;100.00;100912.97;5061909;28;20466;-79
2022/05/13 03:31:04;;;;;;;0.65;0.65;;;;;;;8.11;100.00;100900.50;5060579;28;20029;-79
2022/05/13 03:33:38;;;;;;;0.60;0.60;;;;;;;8.10;100.00;100907.81;5042486;28;20057;-79
2022/05/13 03:36:12;;;;;;;0.52;0.52;;;;;;;8.06;100.00;100895.84;5068034;28;20047;-79
2022/05/13 03:38:40;;;;;;;0.50;0.50;;;;;;;8.07;100.00;100910.22;5058420;28;20045;-79
2022/05/13 03:41:15;;;;;;;0.70;0.70;;;;;;;8.12;100.00;100904.81;5071501;28;20043;-79
2022/05/13 03:43:43;;;;;;;0.75;0.75;;;;;;;8.11;100.00;100900.50;5080581;28;20055;-79
2022/05/13 03:46:16;;;;;;;0.90;0.90;;;;;;;8.18;100.00;100911.94;5058134;28;20080;-79
2022/05/13 03:48:49;;;;;;;0.70;0.70;;;;;;;8.13;100.00;100910.03;5076794;28;20048;-79
2022/05/13 03:51:23;;;;;;;1.20;1.20;;;;;;;8.22;100.00;100904.13;5074795;28;20044;-79
2022/05/13 03:53:51;;;;;;;1.00;1.00;;;;;;;8.12;100.00;100891.28;5078886;28;20533;-79
2022/05/13 03:56:26;;;;;;;1.45;1.30;;;;;;;8.21;100.00;100899.78;5058394;28;20659;-79
2022/05/13 03:58:54;;;;;;;1.23;1.23;;;;;;;8.27;100.00;100899.56;5051302;28;20063;-79
2022/05/13 04:01:27;;;;;;;1.23;1.23;;;;;;;8.30;100.00;100900.91;5064636;28;20041;-79
2022/05/13 04:03:55;;;;;;;1.75;1.65;;;;;;;8.31;100.00;100897.97;5053061;28;20045;-78
2022/05/13 04:09:21;;;;;;;1.80;1.70;;;;;;;8.37;100.00;100892.56;5067853;28;20057;-79
2022/05/13 04:17:33;;;;;;;2.72;2.53;;;;;;;8.53;100.00;100877.25;5088875;28;20059;-79
2022/05/13 04:20:07;;;;;;;3.00;2.80;;;;;;;8.60;100.00;100878.66;5051169;28;20049;-79
2022/05/13 04:22:41;;;;;;;3.63;3.42;;;;;;;8.66;100.00;100879.53;5054658;28;20830;-79
2022/05/13 04:25:10;;;;;;;4.20;3.90;;;;;;;8.72;100.00;100875.75;5049400;28;20056;-79
2022/05/13 04:27:45;;;;;;;4.40;4.10;;;;;;;8.78;100.00;100876.59;5054272;28;20500;-79
2022/05/13 04:30:18;;;;;;;4.53;4.22;;;;;;;8.83;100.00;100874.72;5055185;28;20055;-79
2022/05/13 04:32:52;;;;;;;5.68;5.28;;;;;;;8.81;100.00;100867.91;5069234;28;20041;-81
2022/05/13 04:35:25;;;;;;;5.50;5.10;;;;;;;8.88;100.00;100864.97;5051599;28;20048;-80
2022/05/13 04:37:58;;;;;;;6.10;5.70;;;;;;;8.94;100.00;100863.94;5076573;28;20040;-80
2022/05/13 04:40:32;;;;;;;7.32;6.82;;;;;;;9.04;100.00;100866.69;5075403;28;20048;-79
2022/05/13 04:43:06;;;;;;;7.28;6.78;;;;;;;9.06;100.00;100861.81;5061127;28;20568;-80
2022/05/13 04:45:40;;;;;;;9.38;8.50;;;;;;;9.10;100.00;100859.38;5069229;28;20044;-80
2022/05/13 04:48:16;;;;;;;8.70;8.10;;;;;;;9.13;100.00;100865.09;5050716;28;20048;-79
2022/05/13 04:50:50;;;;;;;8.95;8.35;;;;;;;9.30;100.00;100861.34;5065410;28;20461;-79
2022/05/13 04:53:25;;;;;;;10.27;9.57;;;;;;;9.42;100.00;100851.06;5050270;28;20413;-79
2022/05/13 04:56:00;;;;;;;9.55;8.90;;;;;;;9.45;100.00;100857.88;5048976;28;20052;-80
2022/05/13 04:58:35;;;;;;;10.68;9.98;;;;;;;9.50;100.00;100857.88;5050947;28;20060;-79
2022/05/13 05:01:10;;;;;;;10.45;9.75;;;;;;;9.68;100.00;100862.81;5069452;28;20067;-79
2022/05/13 05:03:45;;;;;;;10.40;9.70;;;;;;;9.73;100.00;100858.47;5048290;28;20060;-79
2022/05/13 05:06:20;;;;;;;9.95;9.25;;;;;;;9.59;100.00;100869.84;5067382;28;20781;-79
2022/05/13 05:08:56;;;;;;;10.30;9.60;;;;;;;9.67;100.00;100877.47;5078305;28;20777;-79
2022/05/13 05:11:24;;;;;;;10.65;9.95;;;;;;;9.73;100.00;100886.44;5072000;28;20052;-80
2022/05/13 05:13:59;;;;;;;11.10;10.40;;;;;;;9.69;100.00;100891.63;5045830;28;20060;-79
2022/05/13 05:16:27;;;;;;;12.15;11.35;;;;;;;9.73;100.00;100891.06;5063702;28;20045;-79
2022/05/13 05:19:00;;;;;;;11.73;10.98;;;;;;;9.78;100.00;100899.25;5065355;28;20052;-79
2022/05/13 05:21:33;;;;;;;12.65;11.85;;;;;;;9.73;100.00;100900.03;5046452;28;20056;-79
2022/05/13 05:24:07;;;;;;;13.82;12.95;;;;;;;9.77;100.00;100906.56;5047028;28;20056;-79
2022/05/13 05:26:40;;;;;;;11.13;10.43;;;;;;;9.75;100.00;100900.59;5069843;28;20055;-79
2022/05/13 05:29:16;;;;;;;10.80;10.10;;;;;;;9.84;100.00;100909.03;5068321;28;20043;-79
2022/05/13 05:31:49;;;;;;;13.07;12.27;;;;;;;9.84;100.00;100909.03;5062125;28;20429;-79
2022/05/13 05:34:22;;;;;;;13.55;12.68;;;;;;;9.83;100.00;100901.97;5049609;28;20405;-79
2022/05/13 05:36:55;;;;;;;13.93;13.05;;;;;;;9.91;100.00;100909.56;5065131;28;20047;-79
2022/05/13 05:39:29;;;;;;;14.77;13.88;;;;;;;9.96;100.00;100906.06;5045253;28;20064;-80
2022/05/13 05:41:57;;;;;;;16.42;15.43;;;;;;;9.95;100.00;100915.31;5049964;28;20421;-81
2022/05/13 05:44:27;;;;;;;18.40;17.30;;;;;;;10.03;100.00;100915.56;5051128;28;20059;-83
2022/05/13 05:46:55;;;;;;;16.70;15.70;;;;;;;10.06;100.00;100927.00;5061523;28;20056;-80
2022/05/13 05:49:23;;;;;;;17.00;16.00;;;;;;;10.02;100.00;100930.25;5059553;28;20047;-80
2022/05/13 05:51:51;;;;;;;16.02;15.02;;;;;;;10.02;100.00;100924.00;5066417;28;20044;-79
2022/05/13 05:57:15;;;;;;;14.18;13.27;;;;;;;10.11;100.00;100908.81;5061647;28;20055;-79
2022/05/13 05:59:50;;;;;;;16.77;15.77;;;;;;;10.20;100.00;100915.34;5067116;28;20041;-79
2022/05/13 06:02:23;;;;;;;15.57;14.65;;;;;;;10.16;100.00;100907.97;5056394;28;20060;-79
2022/05/13 06:04:56;;;;;;;14.10;13.20;;;;;;;10.21;100.00;100910.72;5055837;28;20408;-79
2022/05/13 06:07:29;;;;;;;14.52;13.63;;;;;;;10.21;100.00;100911.50;5053713;28;20059;-79
2022/05/13 06:10:03;;;;;;;15.95;14.95;;;;;;;10.34;100.00;100918.38;5048338;28;20053;-80
2022/05/13 06:12:36;;;;;;;15.18;14.27;;;;;;;10.35;100.00;100905.56;5047184;28;20044;-81
2022/05/13 06:15:13;;;;;;;16.75;15.75;;;;;;;10.45;100.00;100921.06;5045551;28;20063;-80
2022/05/13 06:17:45;;;;;;;17.95;16.88;;;;;;;10.54;100.00;100917.53;5045897;28;20520;-80
2022/05/13 06:20:20;;;;;;;17.08;16.08;;;;;;;10.70;100.00;100912.88;5044537;28;20424;-80
2022/05/13 06:22:53;;;;;;;20.70;19.50;;;;;;;10.79;100.00;100913.13;5028369;28;20718;-79
2022/05/13 06:25:27;;;;;;;18.90;17.80;;;;;;;10.82;100.00;100909.84;5033520;28;20048;-81
2022/05/13 06:28:02;;;;;;;17.50;16.45;;;;;;;10.85;100.00;100912.03;5038360;28;20052;-80
2022/05/13 06:30:38;;;;;;;16.00;15.00;;;;;;;10.82;100.00;100907.13;5029149;28;20064;-81
2022/05/13 06:33:12;;;;;;;15.07;14.17;;;;;;;10.83;100.00;100913.41;5046722;28;20040;-81
2022/05/13 06:35:45;;;;;;;12.70;11.90;;;;;;;10.75;100.00;100911.25;5038775;28;20310;-81
2022/05/13 06:38:25;;;;;;;12.68;11.88;;;;;;;10.65;100.00;100904.72;5047253;28;20052;-79
2022/05/13 06:40:58;;;;;;;13.27;12.48;;;;;;;10.69;100.00;100902.28;5053638;28;20059;-81
2022/05/13 06:43:26;;;;;;;13.00;12.20;;;;;;;10.68;100.00;100884.31;5051351;28;20040;-80
2022/05/13 06:46:01;;;;;;;12.82;12.02;;;;;;;10.72;100.00;100888.09;5034421;28;20060;-81
2022/05/13 06:48:29;;;;;;;12.05;11.25;;;;;;;10.82;100.00;100888.06;5031372;28;20056;-80
2022/05/13 06:50:58;;;;;;;12.38;11.57;;;;;;;10.89;100.00;100894.03;5050909;28;20063;-81
2022/05/13 06:53:31;;;;;;;10.90;10.20;;;;;;;10.85;100.00;100897.59;5035892;28;20057;-81
2022/05/13 06:56:05;;;;;;;12.18;11.38;;;;;;;10.88;100.00;100897.03;5053708;28;20052;-80
2022/05/13 06:58:38;;;;;;;11.00;10.30;;;;;;;10.77;100.00;100895.44;5032623;28;20056;-80
2022/05/13 07:01:13;;;;;;;10.85;10.10;;;;;;;10.82;100.00;100909.84;5048677;28;20048;-80
2022/05/13 07:03:46;;;;;;;10.40;9.70;;;;;;;10.75;100.00;100900.34;5046508;28;20048;-80
2022/05/13 07:06:19;;;;;;;9.13;8.52;;;;;;;10.67;100.00;100901.72;5030251;28;20055;-81
2022/05/13 07:08:52;;;;;;;8.60;8.00;;;;;;;10.68;100.00;100903.34;5032508;28;20059;-81
2022/05/13 07:11:26;;;;;;;9.90;9.20;;;;;;;10.63;100.00;100901.44;5053745;28;20063;-80
2022/05/13 07:13:59;;;;;;;9.93;9.23;;;;;;;10.54;100.00;100895.75;5057746;28;20060;-81
2022/05/13 07:16:34;;;;;;;11.55;10.80;;;;;;;10.42;100.00;100897.13;5053020;28;20052;-81
2022/05/13 07:19:08;;;;;;;12.45;11.65;;;;;;;10.49;100.00;100893.03;5029743;28;20143;-80
2022/05/13 07:21:41;;;;;;;14.70;13.80;;;;;;;10.52;100.00;100897.09;5039316;28;20052;-81
2022/05/13 07:24:14;;;;;;;18.33;17.13;;;;;;;10.59;100.00;100892.19;5036215;28;20048;-82
2022/05/13 07:26:49;;;;;;;19.30;18.20;;;;;;;10.66;100.00;100900.09;5047348;28;20067;-81
2022/05/13 07:29:22;;;;;;;22.17;20.88;;;;;;;10.55;100.00;100891.16;5044915;28;20516;-82
2022/05/13 07:31:52;;;;;;;27.52;25.98;;;;;;;10.68;100.00;100893.28;5054768;28;20056;-81
2022/05/13 07:34:25;;;;;;;34.40;32.53;;;;;;;10.72;100.00;100891.63;5051926;28;20056;-80
2022/05/13 07:36:58;;;;;;;42.63;40.35;;;;;;;10.71;100.00;100889.19;5052875;28;20053;-80
2022/05/13 07:42:23;;;;;;;50.85;48.10;;;;;;;10.91;100.00;100910.13;5029343;28;20057;-80
2022/05/13 07:44:56;;;;;;;56.03;53.03;;;;;;;10.93;100.00;100899.75;5043323;28;20412;-81
2022/05/13 07:47:25;;;;;;;62.40;59.05;;;;;;;11.04;100.00;100895.09;5044099;28;20834;-82
2022/05/13 07:49:59;;;;;;;73.45;69.50;;;;;;;11.01;100.00;100895.66;5039403;28;20158;-82
2022/05/13 07:52:32;;;;;;;74.05;70.10;;;;;;;11.19;100.00;100900.47;5037035;28;20741;-82
2022/05/13 07:55:00;;;;;;;81.53;77.20;;;;;;;11.09;100.00;100889.63;5048991;28;20391;-81
2022/05/13 07:57:33;;;;;;;93.32;88.45;;;;;;;11.18;100.00;100900.75;5049274;28;20052;-82
2022/05/13 08:02:55;;;;;;;93.45;88.55;;;;;;;11.17;100.00;100910.03;5045301;28;20060;-81
2022/05/13 08:05:24;;;;;;;79.68;75.45;;;;;;;11.27;100.00;100910.00;5049521;28;20044;-81
2022/05/13 08:08:02;;;;;;;79.78;75.53;;;;;;;11.36;100.00;100910.22;5058822;28;20048;-81
2022/05/13 08:10:31;;;;;;;74.68;70.68;;;;;;;11.53;100.00;100913.41;5033804;28;20060;-81
2022/05/13 08:12:59;;;;;;;74.35;70.38;;;;;;;11.76;100.00;100902.91;5031741;28;21692;-81
2022/05/13 08:15:32;;;;;;;69.78;66.05;;;;;;;11.71;100.00;100905.66;5027882;28;20056;-81
2022/05/13 08:18:02;;;;;;;54.25;51.30;;;;;;;11.81;100.00;100910.28;5022095;28;20049;-81
2022/05/13 08:20:30;;;;;;;50.50;47.80;;;;;;;11.82;100.00;100904.53;5046872;28;20062;-80
2022/05/13 08:22:59;;;;;;;41.53;39.28;;;;;;;11.90;100.00;100897.66;5026665;28;20057;-80
2022/05/13 08:25:33;;;;;;;35.83;33.88;;;;;;;11.85;100.00;100906.69;5026931;28;20060;-80
2022/05/13 08:28:01;;;;;;;31.63;29.90;;;;;;;11.75;100.00;100895.81;5028783;28;20067;-81
2022/05/13 08:30:36;;;;;;;29.75;28.13;;;;;;;11.85;100.00;100909.41;5034964;28;20060;-80
2022/05/13 08:33:11;;;;;;;22.88;21.58;;;;;;;11.97;100.00;100902.81;5050004;28;20052;-80
2022/05/13 08:35:46;;;;;;;20.15;18.95;;;;;;;11.98;100.00;100908.00;5040724;28;20052;-81
2022/05/13 08:38:22;;;;;;;20.15;18.98;;;;;;;12.17;100.00;100919.03;5039957;28;20072;-81
2022/05/13 08:41:09;;;;;;;18.45;17.35;;;;;;;12.50;100.00;100918.50;5050453;28;20057;-81
2022/05/13 08:43:46;;;;;;;21.42;20.23;;;;;;;12.68;100.00;100912.31;5032473;28;20052;-80
2022/05/13 08:46:27;;;;;;;19.45;18.33;;;;;;;13.01;100.00;100920.72;5052046;28;20048;-80
2022/05/13 08:49:08;;;;;;;19.85;18.67;;;;;;;13.00;100.00;100919.09;5050629;28;20048;-81
2022/05/13 08:51:52;;;;;;;14.52;13.63;;;;;;;12.70;100.00;100923.75;5047233;28;20056;-81
2022/05/13 08:54:32;;;;;;;9.65;8.95;;;;;;;12.77;100.00;100923.41;5046759;28;20041;-82
2022/05/13 08:57:09;;;;;;;7.13;6.63;;;;;;;12.75;100.00;100918.25;5056033;28;20530;-82
2022/05/13 08:59:46;;;;;;;6.40;5.90;;;;;;;12.98;100.00;100918.56;5035329;28;20079;-80
2022/05/13 09:02:24;;;;;;;6.57;6.07;;;;;;;12.85;100.00;100921.97;5057591;28;20044;-80
2022/05/13 09:05:05;;;;;;;5.03;4.65;;;;;;;12.83;100.00;100916.81;5047759;28;20049;-80
2022/05/13 09:07:38;;;;;;;3.80;3.60;;;;;;;13.01;100.00;100914.41;5028440;28;20065;-81
2022/05/13 09:10:12;;;;;;;3.47;3.28;;;;;;;12.96;100.00;100920.75;5047498;28;20713;-83
2022/05/13 09:12:48;;;;;;;3.42;3.22;;;;;;;13.25;100.00;100928.09;5051654;28;20072;-80
2022/05/13 09:15:25;;;;;;;3.35;3.15;;;;;;;13.39;100.00;100929.03;5033297;28;20059;-80
2022/05/13 09:18:03;;;;;;;3.20;3.00;;;;;;;13.48;100.00;100929.22;5051150;28;20056;-79
2022/05/13 09:20:47;;;;;;;5.75;3.45;;;;;;;13.36;100.00;100920.63;5038967;28;20063;-80
2022/05/13 09:23:20;;;;;;;3.35;3.15;;;;;;;13.28;100.00;100941.16;5052647;28;20053;-80
2022/05/13 09:26:01;;;;;;;2.38;2.28;;;;;;;13.19;100.00;100935.53;5052461;28;20079;-80
2022/05/13 09:28:38;;;;;;;2.10;2.00;;;;;;;13.31;100.00;100931.56;5031300;28;20070;-79
2022/05/13 09:31:18;;;;;;;2.25;2.15;;;;;;;13.21;100.00;100933.31;5026176;28;20068;-80
2022/05/13 09:33:51;;;;;;;1.83;1.73;;;;;;;13.24;100.00;100923.72;5047367;28;20048;-79
2022/05/13 09:36:35;;;;;;;1.90;1.80;;;;;;;13.49;100.00;100922.63;5051473;28;20071;-80
2022/05/13 09:39:19;;;;;;;2.10;2.00;;;;;;;14.05;100.00;100920.22;5049087;28;20048;-80
2022/05/13 09:41:53;;;;;;;2.35;2.25;;;;;;;14.21;100.00;100920.75;5051842;28;20052;-79
2022/05/13 09:44:27;;;;;;;2.53;2.33;;;;;;;14.42;100.00;100918.53;5028276;28;20051;-80
2022/05/13 09:47:10;;;;;;;;;;;;;;;14.57;100.00;100921.00;5060888;28;20060;-78
2022/05/13 09:49:46;;;;;;;2.05;1.95;;;;;;;14.53;100.00;100922.69;5048939;28;19928;-80
2022/05/13 09:52:30;;;;;;;1.70;1.60;;;;;;;14.62;100.00;100934.63;5050827;28;20044;-80
2022/05/13 09:55:13;;;;;;;1.38;1.30;;;;;;;14.54;100.00;100916.13;5034406;28;20063;-80
2022/05/13 09:57:51;;;;;;;1.00;1.00;;;;;;;14.53;100.00;100928.19;5047625;28;20052;-80
2022/05/13 10:00:29;;;;;;;1.13;1.13;;;;;;;14.69;100.00;100922.47;5032758;28;20063;-80
2022/05/13 10:03:20;;;;;;;1.38;1.27;;;;;;;14.49;100.00;100918.94;5050770;28;20036;-79
2022/05/13 10:06:02;;;;;;;0.90;0.90;;;;;;;14.52;100.00;100926.53;5030140;28;20056;-79
2022/05/13 10:08:39;;;;;;;0.93;0.93;;;;;;;14.65;100.00;100924.16;5045309;28;20060;-80
2022/05/13 10:14:02;;;;;;;2.05;1.27;;;;;;;14.34;100.00;100919.19;5033171;28;20056;-79
2022/05/13 10:16:40;;;;;;;1.00;0.98;;;;;;;15.09;100.00;100929.09;5030554;28;20451;-79
2022/05/13 10:19:18;;;;;;;0.93;0.93;;;;;;;15.36;100.00;100921.97;5025041;28;20060;-80
2022/05/13 10:22:01;;;;;;;1.13;1.02;;;;;;;15.19;100.00;100917.13;5044622;28;20053;-80
2022/05/13 10:24:44;;;;;;;0.70;0.70;;;;;;;15.14;100.00;100920.75;5028616;28;21432;-81
2022/05/13 10:27:24;;;;;;;1.58;0.93;;;;;;;14.89;100.00;100919.34;5034145;28;20064;-79
2022/05/13 10:30:05;;;;;;;0.70;0.68;;;;;;;14.77;100.00;100924.50;5053446;28;20055;-79
2022/05/13 10:32:47;;;;;;;0.82;0.70;;;;;;;14.97;100.00;100917.84;5049204;28;20052;-80
2022/05/13 10:35:19;;;;;;;0.70;0.70;;;;;;;15.17;100.00;100921.28;5067537;28;20044;-79
2022/05/13 10:38:07;;;;;;;;;;;;;;;15.47;100.00;100923.38;5028779;28;20056;-80
2022/05/13 10:40:44;;;;;;;0.60;0.60;;;;;;;15.24;100.00;100922.47;5046424;28;20658;-81
2022/05/13 10:43:22;;;;;;;0.70;0.70;;;;;;;15.29;100.00;100922.38;5050387;28;20048;-80
2022/05/13 10:46:08;;;;;;;0.60;0.60;;;;;;;15.67;100.00;100915.81;5024113;28;20489;-80
2022/05/13 10:48:42;;;;;;;0.45;0.45;;;;;;;15.59;100.00;100916.56;5043034;28;20056;-79
2022/05/13 10:51:19;;;;;;;0.55;0.55;;;;;;;15.88;100.00;100924.44;5028350;28;20059;-80
2022/05/13 10:54:07;;;;;;;0.80;0.80;;;;;;;15.63;100.00;100928.53;5027702;28;20060;-80
2022/05/13 10:56:52;;;;;;;0.55;0.55;;;;;;;15.69;100.00;100937.47;5030930;28;20057;-80
2022/05/13 10:59:44;;;;;;;1.00;0.60;;;;;;;15.29;100.00;100929.81;5049396;28;20062;-80
2022/05/13 11:02:44;;;;;;;0.63;0.63;;;;;;;15.16;100.00;100928.69;5045526;28;20056;-79
2022/05/13 11:05:30;;;;;;;4.13;0.60;;;;;;;15.03;100.00;100932.25;5023963;28;20075;-81
2022/05/13 11:08:09;;;;;;;1.25;0.80;;;;;;;14.72;100.00;100935.53;5035962;28;20048;-79
2022/05/13 11:10:50;;;;;;;0.95;0.70;;;;;;;14.53;100.00;100941.88;5047927;28;20052;-80
2022/05/13 11:13:27;;;;;;;0.50;0.50;;;;;;;13.96;100.00;100982.97;5044520;28;20063;-80
2022/05/13 11:16:05;;;;;;;0.60;0.60;;;;;;;12.86;100.00;101003.63;5044644;28;20048;-80
2022/05/13 11:18:41;;;;;;;0.50;0.50;;;;;;;12.24;100.00;101011.50;5045136;28;20056;-79
2022/05/13 11:21:23;;;;;;;0.50;0.50;;;;;;;11.60;100.00;101016.69;5043740;28;21854;-79
2022/05/13 11:26:55;;;;;;;;;;;;;;;11.40;100.00;101009.41;5026954;28;19928;-80
2022/05/13 11:29:31;;;;;;;;;;;;;;;11.43;100.00;100997.94;5025781;28;19928;-79
2022/05/13 11:32:04;;;;;;;;;;;;;;;11.56;100.00;100989.16;5058621;28;21417;-80
2022/05/13 11:34:47;;;;;;;;;;;;;;;11.87;100.00;101001.84;5048777;28;19928;-80
2022/05/13 11:37:21;;;;;;;;;;;;;;;12.21;100.00;100993.75;5027276;28;19928;-81
2022/05/13 11:39:57;;;;;;;;;;;;;;;12.66;100.00;101003.81;5027950;28;19929;-80
2022/05/13 11:45:49;;;;;;;;;;;;;;;13.55;100.00;100989.00;5050751;28;19924;-80
2022/05/13 11:48:26;;;;;;;;;;;;;;;13.94;100.00;100987.94;5031558;28;19952;-81
2022/05/13 11:51:02;;;;;;;;;;;;;;;14.01;100.00;100991.13;5044333;28;19928;-81
2022/05/13 11:53:46;;;;;;;;;;;;;;;13.97;100.00;100992.00;5027689;28;19931;-81
2022/05/13 11:56:29;;;;;;;;;;;;;;;14.04;100.00;100985.06;5033628;28;19939;-80
2022/05/13 11:59:04;;;;;;;;;;;;;;;14.26;100.00;100978.16;5051549;28;20587;-80
2022/05/13 12:01:52;;;;;;;;;;;;;;;14.14;100.00;100986.03;5035491;28;20303;-80
2022/05/13 12:04:27;;;;;;;;;;;;;;;14.26;100.00;100986.38;5051271;28;19929;-80
2022/05/13 12:07:01;;;;;;;;;;;;;;;14.08;100.00;100993.50;5036071;28;20032;-80
2022/05/13 12:09:31;;;;;;;;;;;;;;;14.11;100.00;100984.69;5041192;28;19939;-80
2022/05/13 12:12:05;;;;;;;;;;;;;;;13.97;100.00;100981.06;5034455;28;19963;-80
2022/05/13 12:14:44;;;;;;;;;;;;;;;14.16;100.00;100978.34;5051795;28;19944;-80
2022/05/13 12:17:15;;;;;;;;;;;;;;;14.51;100.00;100976.16;5037542;28;19935;-80
2022/05/13 12:19:55;;;;;;;;;;;;;;;14.84;100.00;100981.66;5051207;28;19928;-80
2022/05/13 12:22:37;;;;;;;;;;;;;;;14.95;100.00;100977.59;5059257;28;19932;-81
2022/05/13 12:25:12;;;;;;;;;;;;;;;14.77;100.00;100973.81;5040179;28;19932;-80